Time;durP1;ratioP1;P1;durP2;ratioP2;P2;SDS_P1;SDS_P2;PMS_P1;PMS_P2;Temp;Humidity;BMP_temperature;BMP_pressure;BME280_temperature;BME280_humidity;BME280_pressure;Samples;Min_cycle;Max_cycle;Signal;HPM_P1;HPM_P2
2024/01/07 00:00:30;;;;;;;696.43;30.43;;;;;1.70;93298.00;;;;7401609;19;20163;-78
2024/01/07 00:02:59;;;;;;;763.57;32.57;;;;;1.90;93306.00;;;;7403841;19;20144;-78
2024/01/07 00:05:35;;;;;;;571.17;23.17;;;;;1.80;93307.00;;;;7405067;19;20132;-80
2024/01/07 00:08:03;;;;;;;546.73;26.27;;;;;1.80;93299.00;;;;7402903;19;20153;-80
2024/01/07 00:10:38;;;;;;;559.80;25.47;;;;;1.70;93309.00;;;;7401707;19;20152;-79
2024/01/07 00:13:18;;;;;;;609.00;32.17;;;;;1.70;93307.00;;;;7399680;19;20167;-80
2024/01/07 00:15:55;;;;;;;572.53;21.80;;;;;1.60;93306.00;;;;7401160;19;20497;-79
2024/01/07 00:18:24;;;;;;;580.53;29.80;;;;;1.70;93302.00;;;;7400556;19;20588;-81
2024/01/07 00:20:58;;;;;;;736.57;26.37;;;;;1.70;93313.00;;;;7404118;19;20132;-78
2024/01/07 00:23:26;;;;;;;583.27;24.33;;;;;1.60;93307.00;;;;7402984;19;20156;-80
2024/01/07 00:25:54;;;;;;;474.10;23.50;;;;;1.90;93316.00;;;;7402673;19;20140;-79
2024/01/07 00:28:29;;;;;;;350.30;16.67;;;;;1.30;93312.00;;;;7401068;19;20144;-79
2024/01/07 00:31:03;;;;;;;150.07;9.27;;;;;1.30;93309.00;;;;7400983;19;20140;-80
2024/01/07 00:33:38;;;;;;;126.13;8.50;;;;;1.10;93308.00;;;;7401702;19;20524;-80
2024/01/07 00:36:13;;;;;;;92.77;8.17;;;;;0.90;93308.00;;;;7401514;19;20136;-80
2024/01/07 00:38:47;;;;;;;66.97;6.43;;;;;1.00;93317.00;;;;7401330;19;20145;-80
2024/01/07 00:41:21;;;;;;;58.47;5.60;;;;;1.00;93313.00;;;;7401695;19;20149;-79
2024/01/07 00:43:49;;;;;;;24.10;3.90;;;;;0.90;93318.00;;;;7399876;19;20144;-80
2024/01/07 00:46:24;;;;;;;5.70;2.60;;;;;0.60;93317.00;;;;7398806;19;20143;-79
2024/01/07 00:48:51;;;;;;;3.10;2.27;;;;;0.60;93313.00;;;;7401683;19;20596;-80
2024/01/07 00:51:26;;;;;;;4.00;2.70;;;;;0.70;93319.00;;;;7401809;19;20216;-80
2024/01/07 00:53:53;;;;;;;3.37;2.50;;;;;0.70;93315.00;;;;7396659;19;20161;-81
2024/01/07 00:56:29;;;;;;;3.23;2.20;;;;;0.80;93320.00;;;;7403560;19;20120;-80
2024/01/07 00:58:57;;;;;;;3.33;2.50;;;;;0.60;93320.00;;;;7402147;19;20220;-81
2024/01/07 01:01:32;;;;;;;3.27;2.27;;;;;0.60;93315.00;;;;7401232;19;20587;-79
2024/01/07 01:04:07;;;;;;;3.07;2.47;;;;;0.80;93313.00;;;;7402018;19;20220;-79
2024/01/07 01:06:37;;;;;;;3.33;2.30;;;;;0.70;93308.00;;;;7400444;19;20645;-79
2024/01/07 01:09:13;;;;;;;12.37;2.73;;;;;0.70;93313.00;;;;7400609;19;20147;-80
2024/01/07 01:11:41;;;;;;;12.27;2.73;;;;;0.80;93317.00;;;;7395743;19;20624;-81
2024/01/07 01:14:21;;;;;;;5.87;2.90;;;;;0.80;93314.00;;;;7399019;19;20164;-81
2024/01/07 01:16:49;;;;;;;5.93;2.47;;;;;0.90;93318.00;;;;7401093;19;20141;-81
2024/01/07 01:19:24;;;;;;;7.33;2.30;;;;;0.80;93327.00;;;;7400999;19;20528;-80
2024/01/07 01:21:59;;;;;;;3.83;2.40;;;;;0.80;93328.00;;;;7399491;19;20144;-79
2024/01/07 01:24:34;;;;;;;12.80;2.97;;;;;0.80;93326.00;;;;7399046;19;20162;-80
2024/01/07 01:27:08;;;;;;;171.20;10.50;;;;;0.70;93329.00;;;;7398703;19;20157;-80
2024/01/07 01:29:35;;;;;;;87.27;7.03;;;;;0.80;93333.00;;;;7398287;19;20204;-81
2024/01/07 01:32:10;;;;;;;186.63;13.43;;;;;0.80;93336.00;;;;7398413;19;20140;-81
2024/01/07 01:34:39;;;;;;;421.30;17.07;;;;;0.90;93327.00;;;;7397579;19;20144;-81
2024/01/07 01:37:14;;;;;;;335.70;15.10;;;;;0.90;93335.00;;;;7402076;19;20136;-81
2024/01/07 01:39:49;;;;;;;327.10;20.93;;;;;0.90;93337.00;;;;7399514;19;20164;-80
2024/01/07 01:42:24;;;;;;;266.77;14.93;;;;;0.90;93335.00;;;;7396585;19;20183;-80
2024/01/07 01:44:56;;;;;;;424.97;22.07;;;;;0.90;93344.00;;;;7396312;19;20545;-80
2024/01/07 01:47:31;;;;;;;670.87;30.57;;;;;1.00;93334.00;;;;7397573;19;20484;-81
2024/01/07 01:50:00;;;;;;;696.30;32.87;;;;;1.10;93327.00;;;;7397202;19;20142;-79
2024/01/07 01:52:28;;;;;;;597.67;26.80;;;;;1.10;93330.00;;;;7399965;19;20133;-79
2024/01/07 01:55:03;;;;;;;627.13;28.60;;;;;0.90;93335.00;;;;7399622;19;20211;-79
2024/01/07 01:57:36;;;;;;;542.83;27.57;;;;;1.10;93331.00;;;;7403386;19;20641;-80
2024/01/07 02:00:11;;;;;;;259.63;15.87;;;;;1.00;93325.00;;;;7405695;19;20136;-79
2024/01/07 02:02:39;;;;;;;409.47;23.87;;;;;0.90;93330.00;;;;7404596;19;20152;-80
2024/01/07 02:05:14;;;;;;;199.13;11.23;;;;;0.90;93333.00;;;;7406271;19;20140;-80
2024/01/07 02:07:42;;;;;;;236.93;13.53;;;;;1.00;93336.00;;;;7402776;19;20648;-79
2024/01/07 02:10:10;;;;;;;81.70;6.33;;;;;0.90;93336.00;;;;7405697;19;20137;-81
2024/01/07 02:12:45;;;;;;;65.30;4.37;;;;;0.90;93328.00;;;;7405253;19;20136;-81
2024/01/07 02:15:25;;;;;;;23.30;3.57;;;;;0.80;93323.00;;;;7406515;19;20451;-79
2024/01/07 02:18:00;;;;;;;8.50;2.70;;;;;0.80;93332.00;;;;7406233;19;20148;-79
2024/01/07 02:20:28;;;;;;;5.03;2.50;;;;;0.80;93330.00;;;;7404417;19;20129;-81
2024/01/07 02:22:57;;;;;;;3.17;2.13;;;;;0.60;93329.00;;;;7406526;19;20149;-79
2024/01/07 02:25:36;;;;;;;2.97;2.07;;;;;0.60;93325.00;;;;7405786;19;20150;-79
2024/01/07 02:28:11;;;;;;;2.10;1.70;;;;;0.70;93334.00;;;;7403010;19;20172;-79
2024/01/07 02:30:45;;;;;;;2.87;1.90;;;;;0.60;93328.00;;;;7405746;19;20129;-79
2024/01/07 02:33:19;;;;;;;3.90;1.57;;;;;0.70;93329.00;;;;7408936;19;20506;-81
2024/01/07 02:35:54;;;;;;;2.10;1.60;;;;;0.70;93329.00;;;;7408066;19;20125;-81
2024/01/07 02:38:29;;;;;;;1.70;1.30;;;;;0.70;93330.00;;;;7406010;19;20138;-82
2024/01/07 02:40:56;;;;;;;1.83;1.20;;;;;0.60;93331.00;;;;7405382;19;20581;-80
2024/01/07 02:43:24;;;;;;;1.67;1.20;;;;;0.80;93338.00;;;;7396754;19;20186;-81
2024/01/07 02:45:59;;;;;;;1.93;1.00;;;;;0.80;93331.00;;;;7404872;19;20140;-81
2024/01/07 02:48:27;;;;;;;1.47;1.30;;;;;0.70;93324.00;;;;7403518;19;20197;-81
2024/01/07 02:51:03;;;;;;;1.73;1.40;;;;;0.60;93332.00;;;;7407204;19;20546;-81
2024/01/07 02:53:45;;;;;;;1.30;1.10;;;;;0.70;93328.00;;;;7406081;19;20503;-83
2024/01/07 02:56:20;;;;;;;3.10;1.53;;;;;0.70;93327.00;;;;7403017;19;20222;-81
2024/01/07 02:58:54;;;;;;;5.27;1.83;;;;;0.80;93327.00;;;;7401953;19;20148;-81
2024/01/07 03:01:28;;;;;;;59.97;4.70;;;;;0.80;93321.00;;;;7402418;19;20148;-81
2024/01/07 03:03:56;;;;;;;266.30;13.73;;;;;0.90;93338.00;;;;7402016;19;20486;-82
2024/01/07 03:06:27;;;;;;;382.57;18.37;;;;;0.80;93342.00;;;;7401856;19;20723;-82
2024/01/07 03:09:02;;;;;;;659.77;31.47;;;;;0.70;93327.00;;;;7400827;19;20148;-81
2024/01/07 03:11:30;;;;;;;553.27;23.63;;;;;0.70;93333.00;;;;7400129;19;20133;-83
2024/01/07 03:14:11;;;;;;;570.30;22.10;;;;;0.80;93339.00;;;;7394784;19;20492;-80
2024/01/07 03:16:46;;;;;;;436.43;19.73;;;;;0.80;93339.00;;;;7402197;19;20137;-81
2024/01/07 03:19:13;;;;;;;886.60;38.30;;;;;1.00;93340.00;;;;7402677;19;20133;-83
2024/01/07 03:21:49;;;;;;;813.73;32.07;;;;;0.90;93348.00;;;;7400998;19;20679;-82
2024/01/07 03:24:16;;;;;;;986.00;40.27;;;;;1.10;93337.00;;;;7400618;19;20163;-82
2024/01/07 03:26:51;;;;;;;793.93;43.40;;;;;1.00;93342.00;;;;7400877;19;20136;-81
2024/01/07 03:29:31;;;;;;;439.07;22.73;;;;;0.90;93352.00;;;;7401649;19;20486;-83
2024/01/07 03:32:06;;;;;;;641.70;29.60;;;;;0.90;93343.00;;;;7399531;19;20620;-81
2024/01/07 03:34:40;;;;;;;1007.63;42.27;;;;;1.00;93350.00;;;;7401169;19;20608;-81
2024/01/07 03:37:17;;;;;;;565.70;28.00;;;;;0.90;93352.00;;;;7401527;19;20130;-82
2024/01/07 03:39:46;;;;;;;691.37;32.77;;;;;1.10;93350.00;;;;7400715;19;20129;-80
2024/01/07 03:42:21;;;;;;;852.47;34.93;;;;;1.00;93355.00;;;;7401523;19;20151;-80
2024/01/07 03:44:49;;;;;;;1011.63;41.57;;;;;1.00;93346.00;;;;7399497;19;20145;-80
2024/01/07 03:47:23;;;;;;;1047.37;41.57;;;;;1.20;93353.00;;;;7399031;19;20155;-79
2024/01/07 03:49:58;;;;;;;1273.47;49.93;;;;;1.10;93350.00;;;;7400715;19;20628;-80
2024/01/07 03:52:33;;;;;;;657.60;32.20;;;;;1.10;93353.00;;;;7399862;19;20160;-79
2024/01/07 03:55:00;;;;;;;745.50;34.60;;;;;1.10;93357.00;;;;7396352;19;20141;-79
2024/01/07 03:57:35;;;;;;;863.50;42.87;;;;;1.10;93358.00;;;;7397912;19;20603;-79
2024/01/07 04:00:05;;;;;;;829.60;39.70;;;;;1.10;93359.00;;;;7399922;19;20145;-78
2024/01/07 04:02:39;;;;;;;889.57;39.37;;;;;1.20;93361.00;;;;7402277;19;20136;-79
2024/01/07 04:05:07;;;;;;;682.13;33.03;;;;;1.10;93366.00;;;;7399819;19;20133;-79
2024/01/07 04:07:41;;;;;;;819.77;36.40;;;;;1.20;93360.00;;;;7398947;19;20592;-79
2024/01/07 04:10:09;;;;;;;698.87;28.33;;;;;1.20;93363.00;;;;7399554;19;20121;-80
2024/01/07 04:12:57;;;;;;;937.70;37.97;;;;;1.20;93362.00;;;;7399514;19;20488;-80
2024/01/07 04:15:32;;;;;;;714.10;30.53;;;;;1.10;93371.00;;;;7399694;19;20145;-79
2024/01/07 04:18:06;;;;;;;811.80;39.27;;;;;1.20;93362.00;;;;7400247;19;20124;-80
2024/01/07 04:20:34;;;;;;;533.03;23.63;;;;;1.20;93367.00;;;;7399127;19;20133;-79
2024/01/07 04:23:02;;;;;;;476.13;22.23;;;;;1.10;93362.00;;;;7399180;19;20144;-79
2024/01/07 04:25:36;;;;;;;776.93;28.03;;;;;1.10;93371.00;;;;7397326;19;20487;-80
2024/01/07 04:28:10;;;;;;;714.43;33.93;;;;;1.20;93372.00;;;;7397646;19;20583;-79
2024/01/07 04:30:45;;;;;;;1001.67;39.57;;;;;1.20;93374.00;;;;7399278;19;20137;-80
2024/01/07 04:33:20;;;;;;;769.97;36.67;;;;;1.10;93381.00;;;;7397945;19;20143;-80
2024/01/07 04:35:57;;;;;;;737.33;37.33;;;;;1.20;93377.00;;;;7399462;19;20151;-79
2024/01/07 04:38:32;;;;;;;789.77;30.50;;;;;1.30;93380.00;;;;7398422;19;20152;-79
2024/01/07 04:40:59;;;;;;;871.73;37.90;;;;;1.20;93386.00;;;;7398935;19;20149;-79
2024/01/07 04:43:27;;;;;;;810.20;31.70;;;;;1.10;93391.00;;;;7398717;19;20155;-79
2024/01/07 04:46:02;;;;;;;646.03;30.37;;;;;1.00;93388.00;;;;7398385;19;20151;-79
2024/01/07 04:48:29;;;;;;;855.43;34.20;;;;;1.10;93387.00;;;;7398108;19;20132;-79
2024/01/07 04:51:05;;;;;;;886.27;39.70;;;;;1.20;93407.00;;;;7398382;19;20141;-79
2024/01/07 04:53:39;;;;;;;990.13;40.77;;;;;1.10;93403.00;;;;7398584;19;20168;-80
2024/01/07 04:56:13;;;;;;;1070.67;44.83;;;;;1.20;93397.00;;;;7399484;19;20136;-81
2024/01/07 04:58:40;;;;;;;1092.47;43.80;;;;;1.10;93401.00;;;;7398895;19;20145;-79
2024/01/07 05:01:15;;;;;;;1145.80;45.90;;;;;1.20;93407.00;;;;7399504;19;20195;-80
2024/01/07 05:03:43;;;;;;;883.37;39.70;;;;;1.10;93400.00;;;;7399606;19;20624;-80
2024/01/07 05:06:17;;;;;;;903.17;45.07;;;;;1.20;93397.00;;;;7396369;19;20149;-79
2024/01/07 05:08:51;;;;;;;856.33;38.83;;;;;1.20;93396.00;;;;7398112;19;20196;-80
2024/01/07 05:11:19;;;;;;;793.93;32.90;;;;;1.10;93407.00;;;;7397306;19;20160;-80
2024/01/07 05:13:54;;;;;;;1024.63;40.97;;;;;1.30;93391.00;;;;7396009;19;20165;-79
2024/01/07 05:16:34;;;;;;;596.37;32.30;;;;;1.10;93408.00;;;;7397742;19;20144;-80
2024/01/07 05:19:09;;;;;;;603.37;28.67;;;;;1.20;93413.00;;;;7396654;19;20141;-80
2024/01/07 05:21:37;;;;;;;901.07;46.23;;;;;1.10;93413.00;;;;7397633;19;20141;-80
2024/01/07 05:24:12;;;;;;;1024.53;39.37;;;;;1.20;93415.00;;;;7396705;19;20608;-78
2024/01/07 05:26:43;;;;;;;797.37;32.87;;;;;1.20;93415.00;;;;7398953;19;20140;-80
2024/01/07 05:29:18;;;;;;;1028.33;49.90;;;;;1.30;93404.00;;;;7395807;19;20486;-80
2024/01/07 05:31:45;;;;;;;859.07;38.93;;;;;1.30;93414.00;;;;7396370;19;20149;-79
2024/01/07 05:34:20;;;;;;;555.97;29.10;;;;;1.10;93413.00;;;;7398143;19;20160;-78
2024/01/07 05:36:54;;;;;;;1294.10;52.93;;;;;1.00;93416.00;;;;7397294;19;20148;-79
2024/01/07 05:39:28;;;;;;;879.27;42.53;;;;;1.00;93421.00;;;;7397453;19;20159;-79
2024/01/07 05:42:02;;;;;;;907.63;41.87;;;;;1.20;93424.00;;;;7395307;19;20141;-80
2024/01/07 05:44:29;;;;;;;836.50;38.03;;;;;1.20;93424.00;;;;7396196;19;20492;-79
2024/01/07 05:47:04;;;;;;;776.30;36.07;;;;;1.00;93419.00;;;;7398594;19;20639;-79
2024/01/07 05:49:31;;;;;;;835.00;39.00;;;;;1.10;93423.00;;;;7394888;19;20148;-80
2024/01/07 05:52:07;;;;;;;936.60;41.50;;;;;1.00;93424.00;;;;7396253;19;20152;-80
2024/01/07 05:54:41;;;;;;;843.83;32.73;;;;;1.20;93430.00;;;;7395888;19;20145;-80
2024/01/07 05:57:10;;;;;;;711.87;35.73;;;;;1.20;93427.00;;;;7397944;19;20141;-80
2024/01/07 05:59:45;;;;;;;775.73;39.63;;;;;1.20;93432.00;;;;7395737;19;20136;-80
2024/01/07 06:02:13;;;;;;;543.97;32.13;;;;;1.10;93437.00;;;;7398100;19;20465;-81
2024/01/07 06:04:47;;;;;;;784.80;30.00;;;;;1.10;93440.00;;;;7397395;19;20137;-78
2024/01/07 06:07:15;;;;;;;673.33;30.87;;;;;1.20;93443.00;;;;7396789;19;20172;-80
2024/01/07 06:09:49;;;;;;;526.87;28.33;;;;;1.20;93431.00;;;;7396046;19;20140;-78
2024/01/07 06:12:17;;;;;;;511.63;28.70;;;;;1.00;93435.00;;;;7395165;19;20133;-79
2024/01/07 06:14:44;;;;;;;906.17;38.03;;;;;1.20;93446.00;;;;7393937;19;20168;-79
2024/01/07 06:17:19;;;;;;;677.80;32.13;;;;;1.20;93445.00;;;;7395376;19;20155;-78
2024/01/07 06:19:46;;;;;;;446.77;24.97;;;;;1.10;93445.00;;;;7395931;19;20149;-81
2024/01/07 06:22:14;;;;;;;522.90;29.90;;;;;1.10;93440.00;;;;7396467;19;20117;-80
2024/01/07 06:24:48;;;;;;;348.73;21.50;;;;;0.80;93446.00;;;;7395585;19;20137;-81
2024/01/07 06:27:15;;;;;;;512.07;28.73;;;;;0.90;93446.00;;;;7384663;19;20660;-79
2024/01/07 06:29:43;;;;;;;723.13;34.20;;;;;0.90;93450.00;;;;7385323;19;20125;-79
2024/01/07 06:32:18;;;;;;;613.57;32.00;;;;;0.90;93449.00;;;;7387263;19;20128;-79
2024/01/07 06:34:46;;;;;;;617.60;34.80;;;;;0.90;93455.00;;;;7384484;19;20144;-81
2024/01/07 06:37:21;;;;;;;699.07;36.30;;;;;0.80;93453.00;;;;7385235;19;20455;-78
2024/01/07 06:39:48;;;;;;;774.33;37.20;;;;;0.80;93455.00;;;;7384827;19;20166;-79
2024/01/07 06:42:23;;;;;;;889.37;37.60;;;;;1.00;93460.00;;;;7384938;19;20604;-79
2024/01/07 06:44:58;;;;;;;760.97;48.13;;;;;0.90;93459.00;;;;7389397;19;20148;-78
2024/01/07 06:47:53;;;;;;;898.83;46.57;;;;;0.90;93461.00;;;;7393946;19;20157;-79
2024/01/07 06:50:29;;;;;;;781.90;41.73;;;;;1.00;93466.00;;;;7392926;19;20155;-78
2024/01/07 06:53:04;;;;;;;823.63;42.77;;;;;1.10;93466.00;;;;7392253;19;20148;-80
2024/01/07 06:55:31;;;;;;;890.13;47.30;;;;;1.10;93471.00;;;;7390550;19;20144;-82
2024/01/07 06:58:06;;;;;;;720.80;43.00;;;;;1.00;93465.00;;;;7391757;19;20152;-80
2024/01/07 07:00:34;;;;;;;631.63;37.03;;;;;1.00;93474.00;;;;7390730;19;20157;-79
2024/01/07 07:03:08;;;;;;;857.07;49.57;;;;;0.90;93478.00;;;;7391295;19;20501;-79
2024/01/07 07:05:36;;;;;;;886.00;47.07;;;;;1.00;93490.00;;;;7390993;19;20129;-79
2024/01/07 07:08:11;;;;;;;787.30;48.97;;;;;0.70;93485.00;;;;7389956;19;22736;-79
2024/01/07 07:10:45;;;;;;;638.83;39.00;;;;;0.80;93494.00;;;;7389059;19;20129;-79
2024/01/07 07:13:19;;;;;;;697.73;38.60;;;;;0.90;93489.00;;;;7394593;19;20496;-79
2024/01/07 07:15:53;;;;;;;675.80;39.27;;;;;0.80;93487.00;;;;7393454;19;20596;-79
2024/01/07 07:18:27;;;;;;;845.77;44.47;;;;;0.70;93483.00;;;;7395062;19;20167;-80
2024/01/07 07:20:55;;;;;;;814.97;42.20;;;;;0.70;93484.00;;;;7394824;19;20149;-80
2024/01/07 07:23:30;;;;;;;991.37;50.93;;;;;0.70;93497.00;;;;7394556;19;20140;-79
2024/01/07 07:26:04;;;;;;;510.27;32.00;;;;;0.60;93504.00;;;;7396390;19;20531;-79
2024/01/07 07:28:39;;;;;;;103.93;16.17;;;;;0.60;93499.00;;;;7395935;19;20152;-80
2024/01/07 07:31:07;;;;;;;49.83;15.57;;;;;0.80;93513.00;;;;7396179;19;20596;-79
2024/01/07 07:33:41;;;;;;;269.27;27.60;;;;;0.80;93517.00;;;;7396501;19;20144;-79
2024/01/07 07:36:16;;;;;;;129.17;19.30;;;;;0.70;93513.00;;;;7397864;19;20218;-79
2024/01/07 07:38:50;;;;;;;46.17;16.20;;;;;0.80;93519.00;;;;7396645;19;20495;-78
2024/01/07 07:41:18;;;;;;;66.57;18.77;;;;;0.90;93522.00;;;;7397703;19;20146;-80
2024/01/07 07:43:45;;;;;;;409.63;31.07;;;;;0.70;93517.00;;;;7395975;19;20172;-79
2024/01/07 07:46:20;;;;;;;614.90;43.70;;;;;0.70;93520.00;;;;7396411;19;20150;-80
2024/01/07 07:48:54;;;;;;;934.10;58.67;;;;;0.80;93522.00;;;;7395947;19;20468;-81
2024/01/07 07:51:28;;;;;;;823.83;54.07;;;;;0.80;93530.00;;;;7398437;19;20491;-80
2024/01/07 07:54:03;;;;;;;638.40;47.10;;;;;0.70;93529.00;;;;7395665;19;20140;-79
2024/01/07 07:56:31;;;;;;;158.47;23.73;;;;;0.80;93531.00;;;;7397319;19;20147;-78
2024/01/07 07:59:08;;;;;;;407.33;34.30;;;;;0.90;93531.00;;;;7397505;19;20168;-78
2024/01/07 08:01:37;;;;;;;164.33;22.13;;;;;0.90;93539.00;;;;7396420;19;20148;-79
2024/01/07 08:04:06;;;;;;;379.63;34.73;;;;;1.10;93531.00;;;;7398256;19;20230;-79
2024/01/07 08:06:42;;;;;;;76.87;22.33;;;;;1.10;93542.00;;;;7397343;19;20132;-79
2024/01/07 08:09:10;;;;;;;209.70;25.93;;;;;1.10;93541.00;;;;7397730;19;20145;-80
2024/01/07 08:11:46;;;;;;;154.97;22.97;;;;;1.00;93541.00;;;;7396656;19;20144;-78
2024/01/07 08:14:28;;;;;;;38.20;18.93;;;;;1.00;93532.00;;;;7394684;19;20677;-79
2024/01/07 08:17:04;;;;;;;567.67;48.70;;;;;1.00;93539.00;;;;7395373;19;20141;-79
2024/01/07 08:19:33;;;;;;;1310.97;82.67;;;;;1.10;93540.00;;;;7396252;19;20160;-81
2024/01/07 08:22:08;;;;;;;907.93;57.60;;;;;0.90;93542.00;;;;7392386;19;20166;-81
2024/01/07 08:24:42;;;;;;;1018.83;63.57;;;;;0.90;93545.00;;;;7390827;19;21065;-81
2024/01/07 08:27:10;;;;;;;483.03;40.10;;;;;0.90;93561.00;;;;7390892;19;20145;-79
2024/01/07 08:29:44;;;;;;;740.70;56.10;;;;;1.20;93556.00;;;;7390745;19;20600;-80
2024/01/07 08:32:12;;;;;;;1019.07;66.20;;;;;1.00;93556.00;;;;7390431;19;20216;-79
2024/01/07 08:34:46;;;;;;;669.87;46.90;;;;;1.00;93555.00;;;;7390101;19;20153;-79
2024/01/07 08:37:21;;;;;;;610.30;47.30;;;;;1.10;93559.00;;;;7388538;19;20149;-79
2024/01/07 08:39:56;;;;;;;579.77;43.80;;;;;0.90;93557.00;;;;7389473;19;20177;-79
2024/01/07 08:42:24;;;;;;;536.20;38.60;;;;;0.90;93557.00;;;;7388966;19;20183;-80
2024/01/07 08:44:56;;;;;;;593.67;42.53;;;;;0.90;93556.00;;;;7387749;19;20148;-80
2024/01/07 08:47:31;;;;;;;427.33;31.67;;;;;0.80;93559.00;;;;7388187;19;20140;-80
2024/01/07 08:50:04;;;;;;;689.33;48.77;;;;;0.90;93559.00;;;;7389997;19;20125;-80
2024/01/07 08:52:38;;;;;;;576.37;43.60;;;;;0.70;93557.00;;;;7389328;19;20133;-81
2024/01/07 08:55:12;;;;;;;479.90;35.30;;;;;0.80;93567.00;;;;7390682;19;20634;-79
2024/01/07 08:57:41;;;;;;;190.33;21.33;;;;;0.60;93570.00;;;;7388367;19;20465;-78
2024/01/07 09:00:09;;;;;;;40.53;16.77;;;;;0.60;93570.00;;;;7388984;19;20661;-80
2024/01/07 09:02:43;;;;;;;39.77;17.27;;;;;0.70;93572.00;;;;7388014;19;20626;-79
2024/01/07 09:05:13;;;;;;;42.93;18.30;;;;;0.70;93578.00;;;;7386048;19;20278;-81
2024/01/07 09:07:49;;;;;;;34.80;18.07;;;;;0.60;93584.00;;;;7385164;19;20144;-79
2024/01/07 09:10:18;;;;;;;80.50;20.87;;;;;0.50;93580.00;;;;7387061;19;20153;-79
2024/01/07 09:12:56;;;;;;;52.57;19.07;;;;;0.50;93586.00;;;;7387852;19;20164;-79
2024/01/07 09:15:30;;;;;;;32.97;18.47;;;;;0.50;93583.00;;;;7385587;19;20528;-78
2024/01/07 09:18:07;;;;;;;42.20;17.70;;;;;0.60;93597.00;;;;7393941;19;20168;-81
2024/01/07 09:20:37;;;;;;;52.70;20.30;;;;;0.50;93602.00;;;;7386731;19;20496;-81
2024/01/07 09:23:12;;;;;;;44.20;19.33;;;;;0.50;93606.00;;;;7393693;19;20615;-80
2024/01/07 09:25:41;;;;;;;28.47;17.33;;;;;0.60;93599.00;;;;7394001;19;20160;-80
2024/01/07 09:28:15;;;;;;;120.47;23.27;;;;;0.50;93600.00;;;;7393679;19;20133;-82
2024/01/07 09:30:45;;;;;;;46.33;20.30;;;;;0.70;93601.00;;;;7393485;19;20651;-79
2024/01/07 09:33:22;;;;;;;35.77;18.27;;;;;0.60;93607.00;;;;7392514;19;20147;-79
2024/01/07 09:35:57;;;;;;;120.90;21.93;;;;;0.70;93605.00;;;;7389169;19;20135;-81
2024/01/07 09:38:48;;;;;;;944.57;59.77;;;;;0.50;93609.00;;;;7387531;19;20508;-79
2024/01/07 09:41:22;;;;;;;913.43;57.70;;;;;0.80;93607.00;;;;7386314;19;20147;-80
2024/01/07 09:44:01;;;;;;;237.97;27.60;;;;;0.40;93606.00;;;;7386391;19;20156;-79
2024/01/07 09:46:30;;;;;;;94.10;23.10;;;;;0.70;93610.00;;;;7387695;19;20596;-80
2024/01/07 09:49:07;;;;;;;900.83;59.37;;;;;0.60;93601.00;;;;7386025;19;20164;-80
2024/01/07 09:51:37;;;;;;;347.73;33.37;;;;;0.40;93608.00;;;;7386823;19;20653;-79
2024/01/07 09:54:14;;;;;;;439.53;38.53;;;;;0.60;93610.00;;;;7387014;19;20172;-79
2024/01/07 09:56:55;;;;;;;717.47;51.80;;;;;0.60;93607.00;;;;7386557;19;20513;-79
2024/01/07 09:59:36;;;;;;;786.37;54.27;;;;;0.70;93610.00;;;;7374014;19;20186;-79
2024/01/07 10:02:04;;;;;;;34.53;17.87;;;;;0.60;93614.00;;;;7385518;19;20152;-82
2024/01/07 10:04:43;;;;;;;38.70;19.00;;;;;0.60;93608.00;;;;7385773;19;20889;-80
2024/01/07 10:07:11;;;;;;;37.30;19.30;;;;;0.40;93617.00;;;;7388275;19;20141;-79
2024/01/07 10:09:46;;;;;;;40.87;17.97;;;;;0.50;93614.00;;;;7384680;19;20140;-80
2024/01/07 10:12:15;;;;;;;34.27;19.00;;;;;0.50;93605.00;;;;7384719;19;20597;-80
2024/01/07 10:14:55;;;;;;;32.50;17.07;;;;;0.40;93609.00;;;;7383685;19;20176;-79
2024/01/07 10:17:27;;;;;;;40.17;19.23;;;;;0.50;93611.00;;;;7385475;19;20639;-79
2024/01/07 10:20:04;;;;;;;26.30;14.97;;;;;0.50;93622.00;;;;7392183;19;20152;-79
2024/01/07 10:22:33;;;;;;;23.80;12.77;;;;;0.20;93616.00;;;;7391555;19;20137;-78
2024/01/07 10:25:00;;;;;;;23.03;14.83;;;;;0.30;93611.00;;;;7392692;19;20129;-79
2024/01/07 10:27:36;;;;;;;24.23;13.83;;;;;0.40;93623.00;;;;7377793;19;20520;-81
2024/01/07 10:30:04;;;;;;;20.00;13.50;;;;;0.50;93623.00;;;;7368748;19;20163;-80
2024/01/07 10:32:41;;;;;;;20.90;13.03;;;;;0.30;93622.00;;;;7365116;19;20121;-79
2024/01/07 10:35:19;;;;;;;19.67;13.10;;;;;0.40;93619.00;;;;7366651;19;20742;-79
2024/01/07 10:37:47;;;;;;;20.30;13.57;;;;;0.60;93612.00;;;;7365391;19;20546;-79
2024/01/07 10:40:23;;;;;;;23.93;14.17;;;;;0.40;93619.00;;;;7366523;19;20606;-79
2024/01/07 10:42:58;;;;;;;22.93;14.80;;;;;0.30;93616.00;;;;7364234;19;20243;-79
2024/01/07 10:45:32;;;;;;;24.13;13.83;;;;;0.00;93620.00;;;;7373689;19;20573;-80
2024/01/07 10:48:09;;;;;;;20.20;12.83;;;;;0.10;93621.00;;;;7371594;19;21247;-79
2024/01/07 10:50:50;;;;;;;16.23;11.40;;;;;-0.10;93616.00;;;;7369377;19;20137;-79
2024/01/07 10:53:25;;;;;;;15.67;10.70;;;;;0.00;93624.00;;;;7369108;19;20178;-79
2024/01/07 10:56:00;;;;;;;14.77;10.50;;;;;0.10;93622.00;;;;7370769;19;20164;-79
2024/01/07 10:58:36;;;;;;;15.87;9.47;;;;;-0.20;93627.00;;;;7368304;19;20187;-79
2024/01/07 11:01:10;;;;;;;12.93;8.23;;;;;-0.10;93616.00;;;;7369859;19;20576;-81
2024/01/07 11:04:16;;;;;;;13.20;8.30;;;;;0.10;93620.00;;;;7367540;19;20918;-79
2024/01/07 11:07:11;;;;;;;12.83;8.90;;;;;-0.10;93622.00;;;;7365483;19;20192;-80
2024/01/07 11:09:44;;;;;;;13.73;9.57;;;;;0.20;93614.00;;;;7368490;19;20139;-82
2024/01/07 11:12:19;;;;;;;15.10;10.37;;;;;0.20;93621.00;;;;7364394;19;20144;-79
2024/01/07 11:15:06;;;;;;;15.03;10.37;;;;;-0.10;93619.00;;;;7365473;19;20215;-79
2024/01/07 11:17:43;;;;;;;16.20;9.97;;;;;-0.20;93619.00;;;;7366568;19;20137;-80
2024/01/07 11:20:21;;;;;;;12.27;8.87;;;;;-0.10;93622.00;;;;7367154;19;20128;-79
2024/01/07 11:23:38;;;;;;;15.77;11.50;;;;;-0.30;93618.00;;;;7364653;19;20156;-79
2024/01/07 11:26:09;;;;;;;13.23;9.20;;;;;-0.30;93627.00;;;;7369307;19;20507;-79
2024/01/07 11:28:45;;;;;;;11.70;9.07;;;;;-0.40;93623.00;;;;7375299;19;20160;-79
2024/01/07 11:31:15;;;;;;;13.27;9.17;;;;;-0.30;93628.00;;;;7383786;19;20140;-82
2024/01/07 11:33:51;;;;;;;11.67;8.30;;;;;-0.30;93633.00;;;;7385669;19;20156;-81
2024/01/07 11:36:27;;;;;;;15.13;10.47;;;;;-0.10;93639.00;;;;7384347;19;20656;-80
2024/01/07 11:39:02;;;;;;;11.77;8.47;;;;;-0.20;93628.00;;;;7385530;19;20147;-80
2024/01/07 11:41:39;;;;;;;12.53;8.90;;;;;-0.30;93629.00;;;;7385971;19;20124;-79
2024/01/07 11:44:10;;;;;;;10.43;7.23;;;;;0.00;93643.00;;;;7367965;19;20180;-79
2024/01/07 11:46:49;;;;;;;13.17;7.50;;;;;-0.20;93631.00;;;;7369552;19;20136;-80
2024/01/07 11:49:20;;;;;;;9.53;7.20;;;;;-0.10;93633.00;;;;7381610;19;20472;-80
2024/01/07 11:51:55;;;;;;;10.17;7.07;;;;;-0.10;93635.00;;;;7383908;19;20145;-78
2024/01/07 11:54:23;;;;;;;9.13;6.97;;;;;-0.20;93630.00;;;;7385265;19;20584;-77
2024/01/07 11:56:58;;;;;;;9.70;6.73;;;;;-0.50;93635.00;;;;7384065;19;20144;-78
2024/01/07 11:59:26;;;;;;;9.50;6.87;;;;;-0.40;93631.00;;;;7385052;19;20164;-80
2024/01/07 12:02:04;;;;;;;9.33;7.20;;;;;-0.50;93626.00;;;;7383982;19;20231;-79
2024/01/07 12:04:38;;;;;;;13.13;8.50;;;;;-0.20;93628.00;;;;7391123;19;20136;-78
2024/01/07 12:07:14;;;;;;;15.67;8.50;;;;;-0.10;93632.00;;;;7390846;19;20188;-78
2024/01/07 12:09:43;;;;;;;26.33;15.13;;;;;-0.20;93629.00;;;;7390060;19;20148;-80
2024/01/07 12:12:18;;;;;;;9.53;6.90;;;;;-0.20;93632.00;;;;7390259;19;20177;-78
2024/01/07 12:14:52;;;;;;;9.77;6.97;;;;;-0.30;93641.00;;;;7388455;19;20172;-78
2024/01/07 12:17:27;;;;;;;9.53;7.20;;;;;0.00;93634.00;;;;7389420;19;20165;-77
2024/01/07 12:19:57;;;;;;;9.77;7.00;;;;;-0.30;93635.00;;;;7391476;19;20220;-77
2024/01/07 12:22:31;;;;;;;10.00;6.73;;;;;-0.30;93638.00;;;;7389094;19;20140;-77
2024/01/07 12:25:08;;;;;;;10.63;7.13;;;;;-0.20;93635.00;;;;7388991;19;20153;-78
2024/01/07 12:27:43;;;;;;;8.67;6.90;;;;;-0.30;93636.00;;;;7391495;19;20129;-78
2024/01/07 12:30:14;;;;;;;14.33;9.23;;;;;-0.40;93633.00;;;;7385047;19;20159;-81
2024/01/07 12:32:52;;;;;;;9.63;7.10;;;;;-0.60;93640.00;;;;7381167;19;20144;-78
2024/01/07 12:35:20;;;;;;;7.67;5.57;;;;;-0.80;93645.00;;;;7383267;19;20152;-78